sensor_id;sensor_type;location;lat;lon;timestamp;P1;durP1;ratioP1;P2;durP2;ratioP2
3359;SDS011;1693;49.602;11.046;2023-08-01T00:00:40;12.20;;;8.47;;
3359;SDS011;1693;49.602;11.046;2023-08-01T00:03:07;7.27;;;6.57;;
3359;SDS011;1693;49.602;11.046;2023-08-01T00:05:34;10.80;;;7.87;;
3359;SDS011;1693;49.602;11.046;2023-08-01T00:08:04;10.50;;;6.37;;
3359;SDS011;1693;49.602;11.046;2023-08-01T00:10:30;9.47;;;8.30;;
3359;SDS011;1693;49.602;11.046;2023-08-01T00:12:58;12.10;;;8.20;;
3359;SDS011;1693;49.602;11.046;2023-08-01T00:15:25;14.50;;;8.13;;
3359;SDS011;1693;49.602;11.046;2023-08-01T00:17:51;10.43;;;7.63;;
3359;SDS011;1693;49.602;11.046;2023-08-01T00:20:19;11.47;;;8.33;;
3359;SDS011;1693;49.602;11.046;2023-08-01T00:22:46;19.07;;;8.07;;
3359;SDS011;1693;49.602;11.046;2023-08-01T00:25:14;12.93;;;7.50;;
3359;SDS011;1693;49.602;11.046;2023-08-01T00:27:41;12.77;;;9.10;;
3359;SDS011;1693;49.602;11.046;2023-08-01T00:30:08;10.07;;;7.53;;
3359;SDS011;1693;49.602;11.046;2023-08-01T00:32:36;15.17;;;8.20;;
3359;SDS011;1693;49.602;11.046;2023-08-01T00:35:04;12.23;;;8.93;;
3359;SDS011;1693;49.602;11.046;2023-08-01T00:37:31;12.53;;;9.23;;
3359;SDS011;1693;49.602;11.046;2023-08-01T00:39:58;9.50;;;8.00;;
3359;SDS011;1693;49.602;11.046;2023-08-01T00:42:27;11.40;;;8.10;;
3359;SDS011;1693;49.602;11.046;2023-08-01T00:44:54;12.20;;;7.50;;
3359;SDS011;1693;49.602;11.046;2023-08-01T00:47:21;10.73;;;7.27;;
3359;SDS011;1693;49.602;11.046;2023-08-01T00:49:48;13.80;;;8.50;;
3359;SDS011;1693;49.602;11.046;2023-08-01T00:52:16;21.33;;;9.77;;
3359;SDS011;1693;49.602;11.046;2023-08-01T00:54:44;14.83;;;7.97;;
3359;SDS011;1693;49.602;11.046;2023-08-01T00:57:11;9.70;;;7.40;;
3359;SDS011;1693;49.602;11.046;2023-08-01T00:59:40;12.30;;;9.50;;
3359;SDS011;1693;49.602;11.046;2023-08-01T01:02:07;10.77;;;9.20;;
3359;SDS011;1693;49.602;11.046;2023-08-01T01:04:34;13.60;;;9.03;;
3359;SDS011;1693;49.602;11.046;2023-08-01T01:07:03;13.60;;;9.73;;
3359;SDS011;1693;49.602;11.046;2023-08-01T01:09:30;21.40;;;9.10;;
3359;SDS011;1693;49.602;11.046;2023-08-01T01:11:58;13.27;;;9.00;;
3359;SDS011;1693;49.602;11.046;2023-08-01T01:14:26;18.20;;;9.73;;
3359;SDS011;1693;49.602;11.046;2023-08-01T01:16:54;11.97;;;8.27;;
3359;SDS011;1693;49.602;11.046;2023-08-01T01:19:22;16.50;;;9.43;;
3359;SDS011;1693;49.602;11.046;2023-08-01T01:21:59;19.77;;;8.77;;
3359;SDS011;1693;49.602;11.046;2023-08-01T01:24:27;9.73;;;8.00;;
3359;SDS011;1693;49.602;11.046;2023-08-01T01:26:55;11.10;;;9.20;;
3359;SDS011;1693;49.602;11.046;2023-08-01T01:29:25;17.40;;;9.07;;
3359;SDS011;1693;49.602;11.046;2023-08-01T01:31:53;17.40;;;9.73;;
3359;SDS011;1693;49.602;11.046;2023-08-01T01:34:21;15.00;;;9.40;;
3359;SDS011;1693;49.602;11.046;2023-08-01T01:36:48;11.47;;;8.47;;
3359;SDS011;1693;49.602;11.046;2023-08-01T01:39:17;11.40;;;8.37;;
3359;SDS011;1693;49.602;11.046;2023-08-01T01:41:44;14.37;;;8.57;;
3359;SDS011;1693;49.602;11.046;2023-08-01T01:44:11;20.33;;;9.27;;
3359;SDS011;1693;49.602;11.046;2023-08-01T01:46:38;13.10;;;9.20;;
3359;SDS011;1693;49.602;11.046;2023-08-01T01:49:05;13.60;;;8.07;;
3359;SDS011;1693;49.602;11.046;2023-08-01T01:51:32;16.07;;;9.10;;
3359;SDS011;1693;49.602;11.046;2023-08-01T01:53:59;11.13;;;7.90;;
3359;SDS011;1693;49.602;11.046;2023-08-01T01:56:28;10.50;;;7.30;;
3359;SDS011;1693;49.602;11.046;2023-08-01T01:58:56;9.60;;;7.77;;
3359;SDS011;1693;49.602;11.046;2023-08-01T02:01:24;11.20;;;7.80;;
3359;SDS011;1693;49.602;11.046;2023-08-01T02:04:02;9.43;;;7.50;;
3359;SDS011;1693;49.602;11.046;2023-08-01T02:06:29;12.73;;;7.90;;
3359;SDS011;1693;49.602;11.046;2023-08-01T02:08:56;12.13;;;8.70;;
3359;SDS011;1693;49.602;11.046;2023-08-01T02:11:24;14.93;;;9.00;;
3359;SDS011;1693;49.602;11.046;2023-08-01T02:13:52;14.30;;;8.30;;
3359;SDS011;1693;49.602;11.046;2023-08-01T02:16:20;10.53;;;8.03;;
3359;SDS011;1693;49.602;11.046;2023-08-01T02:18:48;10.43;;;6.80;;
3359;SDS011;1693;49.602;11.046;2023-08-01T02:21:15;7.30;;;6.60;;
3359;SDS011;1693;49.602;11.046;2023-08-01T02:23:42;9.53;;;6.53;;
3359;SDS011;1693;49.602;11.046;2023-08-01T02:26:10;13.70;;;7.70;;
3359;SDS011;1693;49.602;11.046;2023-08-01T02:28:37;10.97;;;6.83;;
3359;SDS011;1693;49.602;11.046;2023-08-01T02:31:05;10.30;;;7.10;;
3359;SDS011;1693;49.602;11.046;2023-08-01T02:33:32;7.90;;;5.40;;
3359;SDS011;1693;49.602;11.046;2023-08-01T02:36:00;7.30;;;6.30;;
3359;SDS011;1693;49.602;11.046;2023-08-01T02:38:27;14.30;;;7.07;;
3359;SDS011;1693;49.602;11.046;2023-08-01T02:40:54;21.70;;;6.80;;
3359;SDS011;1693;49.602;11.046;2023-08-01T02:43:22;8.00;;;5.97;;
3359;SDS011;1693;49.602;11.046;2023-08-01T02:45:49;12.60;;;7.40;;
3359;SDS011;1693;49.602;11.046;2023-08-01T02:48:18;10.20;;;6.57;;
3359;SDS011;1693;49.602;11.046;2023-08-01T02:50:45;7.00;;;5.97;;
3359;SDS011;1693;49.602;11.046;2023-08-01T02:53:13;11.00;;;6.53;;
3359;SDS011;1693;49.602;11.046;2023-08-01T02:55:40;17.00;;;7.13;;
3359;SDS011;1693;49.602;11.046;2023-08-01T02:58:08;5.63;;;4.90;;
3359;SDS011;1693;49.602;11.046;2023-08-01T03:00:37;9.47;;;6.30;;
3359;SDS011;1693;49.602;11.046;2023-08-01T03:03:05;12.97;;;5.80;;
3359;SDS011;1693;49.602;11.046;2023-08-01T03:05:36;8.57;;;6.03;;
3359;SDS011;1693;49.602;11.046;2023-08-01T03:08:03;9.07;;;6.10;;
3359;SDS011;1693;49.602;11.046;2023-08-01T03:10:30;8.07;;;6.50;;
3359;SDS011;1693;49.602;11.046;2023-08-01T03:12:58;8.30;;;5.83;;
3359;SDS011;1693;49.602;11.046;2023-08-01T03:15:26;8.90;;;6.33;;
3359;SDS011;1693;49.602;11.046;2023-08-01T03:17:53;8.20;;;5.80;;
3359;SDS011;1693;49.602;11.046;2023-08-01T03:20:20;13.77;;;6.20;;
3359;SDS011;1693;49.602;11.046;2023-08-01T03:22:49;9.37;;;6.80;;
3359;SDS011;1693;49.602;11.046;2023-08-01T03:25:16;14.13;;;6.17;;
3359;SDS011;1693;49.602;11.046;2023-08-01T03:27:44;14.40;;;6.83;;
3359;SDS011;1693;49.602;11.046;2023-08-01T03:30:11;18.23;;;6.53;;
3359;SDS011;1693;49.602;11.046;2023-08-01T03:32:39;6.60;;;5.10;;
3359;SDS011;1693;49.602;11.046;2023-08-01T03:35:06;6.20;;;5.57;;
3359;SDS011;1693;49.602;11.046;2023-08-01T03:37:34;8.80;;;6.30;;
3359;SDS011;1693;49.602;11.046;2023-08-01T03:40:02;11.13;;;6.40;;
3359;SDS011;1693;49.602;11.046;2023-08-01T03:42:30;9.43;;;7.20;;
3359;SDS011;1693;49.602;11.046;2023-08-01T03:44:57;6.70;;;4.97;;
3359;SDS011;1693;49.602;11.046;2023-08-01T03:47:25;8.23;;;6.20;;
3359;SDS011;1693;49.602;11.046;2023-08-01T03:49:52;10.93;;;6.13;;
3359;SDS011;1693;49.602;11.046;2023-08-01T03:52:19;10.40;;;6.33;;
3359;SDS011;1693;49.602;11.046;2023-08-01T03:54:46;8.17;;;6.30;;
3359;SDS011;1693;49.602;11.046;2023-08-01T03:57:15;9.00;;;5.13;;
3359;SDS011;1693;49.602;11.046;2023-08-01T03:59:42;10.07;;;5.87;;
3359;SDS011;1693;49.602;11.046;2023-08-01T04:02:10;9.53;;;6.00;;
3359;SDS011;1693;49.602;11.046;2023-08-01T04:04:37;6.30;;;5.33;;
3359;SDS011;1693;49.602;11.046;2023-08-01T04:07:04;7.50;;;5.63;;
3359;SDS011;1693;49.602;11.046;2023-08-01T04:09:32;10.93;;;6.10;;
3359;SDS011;1693;49.602;11.046;2023-08-01T04:11:59;10.70;;;6.30;;
3359;SDS011;1693;49.602;11.046;2023-08-01T04:14:28;9.67;;;6.87;;
3359;SDS011;1693;49.602;11.046;2023-08-01T04:16:55;9.43;;;6.30;;
3359;SDS011;1693;49.602;11.046;2023-08-01T04:19:23;8.27;;;6.20;;
3359;SDS011;1693;49.602;11.046;2023-08-01T04:21:50;7.63;;;5.07;;
3359;SDS011;1693;49.602;11.046;2023-08-01T04:24:17;6.93;;;5.63;;
3359;SDS011;1693;49.602;11.046;2023-08-01T04:26:44;9.23;;;5.80;;
3359;SDS011;1693;49.602;11.046;2023-08-01T04:29:12;7.43;;;5.60;;
3359;SDS011;1693;49.602;11.046;2023-08-01T04:31:42;11.83;;;6.53;;
3359;SDS011;1693;49.602;11.046;2023-08-01T04:34:10;7.17;;;5.93;;
3359;SDS011;1693;49.602;11.046;2023-08-01T04:36:37;7.47;;;5.27;;
3359;SDS011;1693;49.602;11.046;2023-08-01T04:39:04;8.40;;;6.27;;
3359;SDS011;1693;49.602;11.046;2023-08-01T04:41:32;7.07;;;5.90;;
3359;SDS011;1693;49.602;11.046;2023-08-01T04:43:59;8.50;;;5.40;;
3359;SDS011;1693;49.602;11.046;2023-08-01T04:46:26;7.07;;;5.70;;
3359;SDS011;1693;49.602;11.046;2023-08-01T04:48:55;9.40;;;4.77;;
3359;SDS011;1693;49.602;11.046;2023-08-01T04:51:22;8.73;;;5.37;;
3359;SDS011;1693;49.602;11.046;2023-08-01T04:53:50;7.30;;;5.33;;
3359;SDS011;1693;49.602;11.046;2023-08-01T04:56:17;7.17;;;5.23;;
3359;SDS011;1693;49.602;11.046;2023-08-01T04:58:44;7.10;;;5.17;;
3359;SDS011;1693;49.602;11.046;2023-08-01T05:01:12;6.50;;;5.27;;
3359;SDS011;1693;49.602;11.046;2023-08-01T05:03:39;7.30;;;5.30;;
3359;SDS011;1693;49.602;11.046;2023-08-01T05:06:07;7.90;;;5.40;;
3359;SDS011;1693;49.602;11.046;2023-08-01T05:08:35;8.40;;;6.17;;
3359;SDS011;1693;49.602;11.046;2023-08-01T05:11:02;8.60;;;5.73;;
3359;SDS011;1693;49.602;11.046;2023-08-01T05:13:29;6.70;;;5.77;;
3359;SDS011;1693;49.602;11.046;2023-08-01T05:15:56;6.33;;;4.80;;
3359;SDS011;1693;49.602;11.046;2023-08-01T05:18:24;7.70;;;6.00;;
3359;SDS011;1693;49.602;11.046;2023-08-01T05:20:51;9.83;;;5.60;;
3359;SDS011;1693;49.602;11.046;2023-08-01T05:23:20;7.73;;;5.20;;
3359;SDS011;1693;49.602;11.046;2023-08-01T05:25:47;9.80;;;5.40;;
3359;SDS011;1693;49.602;11.046;2023-08-01T05:28:14;7.43;;;5.17;;
3359;SDS011;1693;49.602;11.046;2023-08-01T05:30:41;7.47;;;5.67;;
3359;SDS011;1693;49.602;11.046;2023-08-01T05:33:09;10.10;;;6.80;;
3359;SDS011;1693;49.602;11.046;2023-08-01T05:35:36;10.07;;;6.50;;
3359;SDS011;1693;49.602;11.046;2023-08-01T05:38:03;8.37;;;5.90;;
3359;SDS011;1693;49.602;11.046;2023-08-01T05:40:32;6.93;;;5.63;;
3359;SDS011;1693;49.602;11.046;2023-08-01T05:42:59;6.53;;;5.50;;
3359;SDS011;1693;49.602;11.046;2023-08-01T05:45:27;6.10;;;5.30;;
3359;SDS011;1693;49.602;11.046;2023-08-01T05:47:54;6.50;;;5.43;;
3359;SDS011;1693;49.602;11.046;2023-08-01T05:50:21;6.90;;;5.67;;
3359;SDS011;1693;49.602;11.046;2023-08-01T05:52:49;6.60;;;5.47;;
3359;SDS011;1693;49.602;11.046;2023-08-01T05:55:16;7.17;;;5.63;;
3359;SDS011;1693;49.602;11.046;2023-08-01T05:57:45;10.80;;;6.40;;
3359;SDS011;1693;49.602;11.046;2023-08-01T06:00:14;11.83;;;6.87;;
3359;SDS011;1693;49.602;11.046;2023-08-01T06:02:42;13.77;;;6.40;;
3359;SDS011;1693;49.602;11.046;2023-08-01T06:05:09;7.27;;;5.80;;
3359;SDS011;1693;49.602;11.046;2023-08-01T06:07:36;8.17;;;6.30;;
3359;SDS011;1693;49.602;11.046;2023-08-01T06:10:03;8.33;;;5.97;;
3359;SDS011;1693;49.602;11.046;2023-08-01T06:12:31;11.47;;;5.97;;
3359;SDS011;1693;49.602;11.046;2023-08-01T06:15:00;8.80;;;5.97;;
3359;SDS011;1693;49.602;11.046;2023-08-01T06:17:27;8.80;;;5.83;;
3359;SDS011;1693;49.602;11.046;2023-08-01T06:19:54;8.47;;;5.50;;
3359;SDS011;1693;49.602;11.046;2023-08-01T06:22:21;7.13;;;5.43;;
3359;SDS011;1693;49.602;11.046;2023-08-01T06:24:49;7.00;;;5.57;;
3359;SDS011;1693;49.602;11.046;2023-08-01T06:27:16;11.70;;;6.07;;
3359;SDS011;1693;49.602;11.046;2023-08-01T06:29:43;7.70;;;6.00;;
3359;SDS011;1693;49.602;11.046;2023-08-01T06:32:12;9.03;;;5.50;;
3359;SDS011;1693;49.602;11.046;2023-08-01T06:34:39;8.70;;;6.90;;
3359;SDS011;1693;49.602;11.046;2023-08-01T06:37:06;8.77;;;7.50;;
3359;SDS011;1693;49.602;11.046;2023-08-01T06:39:35;6.60;;;5.43;;
3359;SDS011;1693;49.602;11.046;2023-08-01T06:42:02;8.17;;;6.90;;
3359;SDS011;1693;49.602;11.046;2023-08-01T06:44:30;7.70;;;5.90;;
3359;SDS011;1693;49.602;11.046;2023-08-01T06:46:57;10.73;;;6.37;;
3359;SDS011;1693;49.602;11.046;2023-08-01T06:49:26;7.83;;;6.00;;
3359;SDS011;1693;49.602;11.046;2023-08-01T06:51:53;8.90;;;6.60;;
3359;SDS011;1693;49.602;11.046;2023-08-01T06:54:20;7.50;;;6.57;;
3359;SDS011;1693;49.602;11.046;2023-08-01T06:56:49;9.33;;;6.73;;
3359;SDS011;1693;49.602;11.046;2023-08-01T06:59:16;8.20;;;6.00;;
3359;SDS011;1693;49.602;11.046;2023-08-01T07:01:44;10.50;;;6.37;;
3359;SDS011;1693;49.602;11.046;2023-08-01T07:04:11;9.50;;;6.90;;
3359;SDS011;1693;49.602;11.046;2023-08-01T07:06:40;10.73;;;6.90;;
3359;SDS011;1693;49.602;11.046;2023-08-01T07:09:07;6.63;;;5.90;;
3359;SDS011;1693;49.602;11.046;2023-08-01T07:11:35;8.70;;;6.13;;
3359;SDS011;1693;49.602;11.046;2023-08-01T07:14:02;9.17;;;7.37;;
3359;SDS011;1693;49.602;11.046;2023-08-01T07:16:29;7.20;;;6.13;;
3359;SDS011;1693;49.602;11.046;2023-08-01T07:18:57;8.33;;;6.47;;
3359;SDS011;1693;49.602;11.046;2023-08-01T07:21:25;6.30;;;5.50;;
3359;SDS011;1693;49.602;11.046;2023-08-01T07:23:55;10.50;;;5.70;;
3359;SDS011;1693;49.602;11.046;2023-08-01T07:26:23;10.40;;;6.27;;
3359;SDS011;1693;49.602;11.046;2023-08-01T07:28:50;11.30;;;6.87;;
3359;SDS011;1693;49.602;11.046;2023-08-01T07:31:17;9.47;;;6.47;;
3359;SDS011;1693;49.602;11.046;2023-08-01T07:33:44;6.33;;;5.70;;
3359;SDS011;1693;49.602;11.046;2023-08-01T07:36:11;6.20;;;5.10;;
3359;SDS011;1693;49.602;11.046;2023-08-01T07:38:38;6.70;;;5.73;;
3359;SDS011;1693;49.602;11.046;2023-08-01T07:41:06;11.13;;;6.37;;
3359;SDS011;1693;49.602;11.046;2023-08-01T07:43:33;9.93;;;6.20;;
3359;SDS011;1693;49.602;11.046;2023-08-01T07:46:00;7.77;;;5.80;;
3359;SDS011;1693;49.602;11.046;2023-08-01T07:48:27;10.20;;;5.90;;
3359;SDS011;1693;49.602;11.046;2023-08-01T07:50:54;9.07;;;6.63;;
3359;SDS011;1693;49.602;11.046;2023-08-01T07:53:21;11.00;;;5.90;;
3359;SDS011;1693;49.602;11.046;2023-08-01T07:55:48;7.67;;;6.87;;
3359;SDS011;1693;49.602;11.046;2023-08-01T07:58:17;12.40;;;5.97;;
3359;SDS011;1693;49.602;11.046;2023-08-01T08:00:44;11.00;;;6.93;;
3359;SDS011;1693;49.602;11.046;2023-08-01T08:03:11;15.17;;;7.37;;
3359;SDS011;1693;49.602;11.046;2023-08-01T08:05:38;12.00;;;6.50;;
3359;SDS011;1693;49.602;11.046;2023-08-01T08:08:07;7.60;;;5.77;;
3359;SDS011;1693;49.602;11.046;2023-08-01T08:10:34;9.07;;;6.20;;
3359;SDS011;1693;49.602;11.046;2023-08-01T08:13:01;8.20;;;5.57;;
3359;SDS011;1693;49.602;11.046;2023-08-01T08:15:29;9.30;;;5.70;;
3359;SDS011;1693;49.602;11.046;2023-08-01T08:17:59;8.83;;;5.30;;
3359;SDS011;1693;49.602;11.046;2023-08-01T08:20:29;8.80;;;5.73;;
3359;SDS011;1693;49.602;11.046;2023-08-01T08:22:56;7.60;;;5.30;;
3359;SDS011;1693;49.602;11.046;2023-08-01T08:25:23;12.83;;;6.07;;
3359;SDS011;1693;49.602;11.046;2023-08-01T08:27:50;11.77;;;5.80;;
3359;SDS011;1693;49.602;11.046;2023-08-01T08:30:17;11.43;;;5.60;;
3359;SDS011;1693;49.602;11.046;2023-08-01T08:32:45;9.20;;;5.30;;
3359;SDS011;1693;49.602;11.046;2023-08-01T08:35:12;6.47;;;5.47;;
3359;SDS011;1693;49.602;11.046;2023-08-01T08:37:39;8.00;;;6.87;;
3359;SDS011;1693;49.602;11.046;2023-08-01T08:40:07;7.90;;;5.77;;
3359;SDS011;1693;49.602;11.046;2023-08-01T08:42:34;9.57;;;4.93;;
3359;SDS011;1693;49.602;11.046;2023-08-01T08:45:02;6.70;;;5.90;;
3359;SDS011;1693;49.602;11.046;2023-08-01T08:47:30;7.90;;;4.67;;
3359;SDS011;1693;49.602;11.046;2023-08-01T08:50:03;5.37;;;4.57;;
3359;SDS011;1693;49.602;11.046;2023-08-01T08:52:31;11.03;;;5.20;;
3359;SDS011;1693;49.602;11.046;2023-08-01T08:54:59;6.23;;;5.40;;
3359;SDS011;1693;49.602;11.046;2023-08-01T08:57:27;13.97;;;5.97;;
3359;SDS011;1693;49.602;11.046;2023-08-01T08:59:56;6.77;;;5.53;;
3359;SDS011;1693;49.602;11.046;2023-08-01T09:02:24;6.77;;;5.13;;
3359;SDS011;1693;49.602;11.046;2023-08-01T09:04:51;11.07;;;5.67;;
3359;SDS011;1693;49.602;11.046;2023-08-01T09:07:19;7.87;;;5.87;;
3359;SDS011;1693;49.602;11.046;2023-08-01T09:09:50;8.20;;;4.87;;
3359;SDS011;1693;49.602;11.046;2023-08-01T09:12:18;7.13;;;4.57;;
3359;SDS011;1693;49.602;11.046;2023-08-01T09:14:45;6.20;;;4.70;;
3359;SDS011;1693;49.602;11.046;2023-08-01T09:17:13;9.13;;;5.20;;
3359;SDS011;1693;49.602;11.046;2023-08-01T09:19:41;9.70;;;5.07;;
3359;SDS011;1693;49.602;11.046;2023-08-01T09:22:11;6.10;;;4.40;;
3359;SDS011;1693;49.602;11.046;2023-08-01T09:24:49;8.07;;;5.50;;
3359;SDS011;1693;49.602;11.046;2023-08-01T09:27:17;6.17;;;5.07;;
3359;SDS011;1693;49.602;11.046;2023-08-01T09:29:45;6.23;;;5.10;;
3359;SDS011;1693;49.602;11.046;2023-08-01T09:32:12;7.93;;;5.03;;
3359;SDS011;1693;49.602;11.046;2023-08-01T09:34:40;5.53;;;3.83;;
3359;SDS011;1693;49.602;11.046;2023-08-01T09:37:08;4.43;;;4.03;;
3359;SDS011;1693;49.602;11.046;2023-08-01T09:39:35;8.40;;;4.83;;
3359;SDS011;1693;49.602;11.046;2023-08-01T09:42:04;7.20;;;4.60;;
3359;SDS011;1693;49.602;11.046;2023-08-01T09:44:33;5.43;;;4.80;;
3359;SDS011;1693;49.602;11.046;2023-08-01T09:47:03;7.00;;;4.77;;
3359;SDS011;1693;49.602;11.046;2023-08-01T09:49:32;6.00;;;5.10;;
3359;SDS011;1693;49.602;11.046;2023-08-01T09:51:59;7.30;;;4.83;;
3359;SDS011;1693;49.602;11.046;2023-08-01T09:54:27;6.63;;;3.93;;
3359;SDS011;1693;49.602;11.046;2023-08-01T09:56:54;4.87;;;4.30;;
3359;SDS011;1693;49.602;11.046;2023-08-01T09:59:23;6.77;;;5.07;;
3359;SDS011;1693;49.602;11.046;2023-08-01T10:01:52;5.67;;;4.40;;
3359;SDS011;1693;49.602;11.046;2023-08-01T10:04:22;6.10;;;4.73;;
3359;SDS011;1693;49.602;11.046;2023-08-01T10:06:54;6.50;;;4.40;;
3359;SDS011;1693;49.602;11.046;2023-08-01T10:09:23;6.30;;;4.40;;
3359;SDS011;1693;49.602;11.046;2023-08-01T10:11:51;7.03;;;4.83;;
3359;SDS011;1693;49.602;11.046;2023-08-01T10:14:19;5.70;;;4.50;;
3359;SDS011;1693;49.602;11.046;2023-08-01T10:16:48;7.73;;;5.10;;
3359;SDS011;1693;49.602;11.046;2023-08-01T10:19:15;4.83;;;4.33;;
3359;SDS011;1693;49.602;11.046;2023-08-01T10:21:43;6.60;;;4.70;;
3359;SDS011;1693;49.602;11.046;2023-08-01T10:24:13;5.77;;;5.13;;
3359;SDS011;1693;49.602;11.046;2023-08-01T10:26:40;6.10;;;4.33;;
3359;SDS011;1693;49.602;11.046;2023-08-01T10:29:10;7.20;;;4.50;;
3359;SDS011;1693;49.602;11.046;2023-08-01T10:31:37;4.87;;;3.83;;
3359;SDS011;1693;49.602;11.046;2023-08-01T10:34:06;11.50;;;5.17;;
3359;SDS011;1693;49.602;11.046;2023-08-01T10:36:39;5.53;;;3.73;;
3359;SDS011;1693;49.602;11.046;2023-08-01T10:39:06;4.80;;;3.60;;
3359;SDS011;1693;49.602;11.046;2023-08-01T10:41:34;5.53;;;4.70;;
3359;SDS011;1693;49.602;11.046;2023-08-01T10:44:06;3.83;;;2.90;;
3359;SDS011;1693;49.602;11.046;2023-08-01T10:46:46;7.00;;;4.70;;
3359;SDS011;1693;49.602;11.046;2023-08-01T10:49:16;4.83;;;4.20;;
3359;SDS011;1693;49.602;11.046;2023-08-01T10:51:45;4.93;;;3.70;;
3359;SDS011;1693;49.602;11.046;2023-08-01T10:54:18;4.37;;;3.33;;
3359;SDS011;1693;49.602;11.046;2023-08-01T10:56:47;4.07;;;3.00;;
3359;SDS011;1693;49.602;11.046;2023-08-01T10:59:15;6.90;;;3.47;;
3359;SDS011;1693;49.602;11.046;2023-08-01T11:01:44;3.40;;;3.07;;
3359;SDS011;1693;49.602;11.046;2023-08-01T11:04:14;4.87;;;2.97;;
3359;SDS011;1693;49.602;11.046;2023-08-01T11:06:44;4.13;;;3.00;;
3359;SDS011;1693;49.602;11.046;2023-08-01T11:09:16;4.50;;;2.80;;
3359;SDS011;1693;49.602;11.046;2023-08-01T11:11:44;3.00;;;2.37;;
3359;SDS011;1693;49.602;11.046;2023-08-01T11:14:13;4.73;;;3.27;;
3359;SDS011;1693;49.602;11.046;2023-08-01T11:16:40;3.07;;;2.77;;
3359;SDS011;1693;49.602;11.046;2023-08-01T11:19:18;6.93;;;2.60;;
3359;SDS011;1693;49.602;11.046;2023-08-01T11:21:46;3.20;;;2.53;;
3359;SDS011;1693;49.602;11.046;2023-08-01T11:24:13;3.63;;;1.90;;
3359;SDS011;1693;49.602;11.046;2023-08-01T11:26:44;2.50;;;2.20;;
3359;SDS011;1693;49.602;11.046;2023-08-01T11:29:12;3.00;;;2.20;;
3359;SDS011;1693;49.602;11.046;2023-08-01T11:31:40;3.23;;;2.77;;
3359;SDS011;1693;49.602;11.046;2023-08-01T11:34:19;2.33;;;2.00;;
3359;SDS011;1693;49.602;11.046;2023-08-01T11:36:46;5.10;;;2.60;;
3359;SDS011;1693;49.602;11.046;2023-08-01T11:39:13;2.80;;;1.43;;
3359;SDS011;1693;49.602;11.046;2023-08-01T11:41:42;2.30;;;1.67;;
3359;SDS011;1693;49.602;11.046;2023-08-01T11:44:09;2.13;;;1.57;;
3359;SDS011;1693;49.602;11.046;2023-08-01T11:46:37;3.43;;;1.60;;
3359;SDS011;1693;49.602;11.046;2023-08-01T11:49:06;1.80;;;1.20;;
3359;SDS011;1693;49.602;11.046;2023-08-01T11:51:39;1.67;;;1.30;;
3359;SDS011;1693;49.602;11.046;2023-08-01T11:54:08;2.70;;;1.60;;
3359;SDS011;1693;49.602;11.046;2023-08-01T11:56:36;2.87;;;1.57;;
3359;SDS011;1693;49.602;11.046;2023-08-01T11:59:07;2.53;;;1.67;;
3359;SDS011;1693;49.602;11.046;2023-08-01T12:01:37;3.50;;;1.70;;
3359;SDS011;1693;49.602;11.046;2023-08-01T12:04:05;1.67;;;1.57;;
3359;SDS011;1693;49.602;11.046;2023-08-01T12:06:32;7.33;;;1.67;;
3359;SDS011;1693;49.602;11.046;2023-08-01T12:09:06;2.03;;;1.40;;
3359;SDS011;1693;49.602;11.046;2023-08-01T12:11:36;1.90;;;1.70;;
3359;SDS011;1693;49.602;11.046;2023-08-01T12:14:04;2.97;;;1.70;;
3359;SDS011;1693;49.602;11.046;2023-08-01T12:16:34;5.07;;;1.73;;
3359;SDS011;1693;49.602;11.046;2023-08-01T12:19:01;1.93;;;1.30;;
3359;SDS011;1693;49.602;11.046;2023-08-01T12:21:29;1.77;;;1.30;;
3359;SDS011;1693;49.602;11.046;2023-08-01T12:23:57;2.27;;;1.27;;
3359;SDS011;1693;49.602;11.046;2023-08-01T12:26:26;3.03;;;2.00;;
3359;SDS011;1693;49.602;11.046;2023-08-01T12:28:53;2.97;;;1.40;;
3359;SDS011;1693;49.602;11.046;2023-08-01T12:31:20;2.37;;;1.07;;
3359;SDS011;1693;49.602;11.046;2023-08-01T12:33:48;1.60;;;1.07;;
3359;SDS011;1693;49.602;11.046;2023-08-01T12:36:15;2.70;;;1.00;;
3359;SDS011;1693;49.602;11.046;2023-08-01T12:38:43;2.17;;;0.90;;
3359;SDS011;1693;49.602;11.046;2023-08-01T12:41:10;1.60;;;0.97;;
3359;SDS011;1693;49.602;11.046;2023-08-01T12:43:38;1.40;;;1.03;;
3359;SDS011;1693;49.602;11.046;2023-08-01T12:46:05;6.60;;;1.70;;
3359;SDS011;1693;49.602;11.046;2023-08-01T12:48:32;1.30;;;0.90;;
3359;SDS011;1693;49.602;11.046;2023-08-01T12:50:59;2.60;;;0.90;;
3359;SDS011;1693;49.602;11.046;2023-08-01T12:53:26;4.30;;;0.90;;
3359;SDS011;1693;49.602;11.046;2023-08-01T12:55:53;1.50;;;0.90;;
3359;SDS011;1693;49.602;11.046;2023-08-01T12:58:21;1.50;;;1.00;;
3359;SDS011;1693;49.602;11.046;2023-08-01T13:00:49;3.93;;;1.23;;
3359;SDS011;1693;49.602;11.046;2023-08-01T13:03:16;1.83;;;1.13;;
3359;SDS011;1693;49.602;11.046;2023-08-01T13:05:43;1.93;;;1.10;;
3359;SDS011;1693;49.602;11.046;2023-08-01T13:08:10;1.50;;;1.10;;
3359;SDS011;1693;49.602;11.046;2023-08-01T13:10:38;1.73;;;1.13;;
3359;SDS011;1693;49.602;11.046;2023-08-01T13:13:05;1.47;;;1.10;;
3359;SDS011;1693;49.602;11.046;2023-08-01T13:15:33;2.30;;;1.37;;
3359;SDS011;1693;49.602;11.046;2023-08-01T13:18:01;2.60;;;1.30;;
3359;SDS011;1693;49.602;11.046;2023-08-01T13:20:28;1.30;;;0.80;;
3359;SDS011;1693;49.602;11.046;2023-08-01T13:22:55;1.37;;;0.90;;
3359;SDS011;1693;49.602;11.046;2023-08-01T13:25:22;1.20;;;0.90;;
3359;SDS011;1693;49.602;11.046;2023-08-01T13:27:49;1.80;;;1.00;;
3359;SDS011;1693;49.602;11.046;2023-08-01T13:30:16;2.37;;;1.33;;
3359;SDS011;1693;49.602;11.046;2023-08-01T13:32:44;1.97;;;0.97;;
3359;SDS011;1693;49.602;11.046;2023-08-01T13:35:13;1.97;;;1.13;;
3359;SDS011;1693;49.602;11.046;2023-08-01T13:37:40;4.60;;;0.90;;
3359;SDS011;1693;49.602;11.046;2023-08-01T13:40:08;5.37;;;1.03;;
3359;SDS011;1693;49.602;11.046;2023-08-01T13:42:37;1.70;;;1.17;;
3359;SDS011;1693;49.602;11.046;2023-08-01T13:45:05;1.70;;;1.17;;
3359;SDS011;1693;49.602;11.046;2023-08-01T13:47:34;2.47;;;1.30;;
3359;SDS011;1693;49.602;11.046;2023-08-01T13:50:03;1.63;;;1.20;;
3359;SDS011;1693;49.602;11.046;2023-08-01T13:52:32;2.13;;;1.40;;
3359;SDS011;1693;49.602;11.046;2023-08-01T13:54:59;1.40;;;0.90;;
3359;SDS011;1693;49.602;11.046;2023-08-01T13:57:27;1.30;;;1.10;;
3359;SDS011;1693;49.602;11.046;2023-08-01T13:59:54;6.30;;;1.10;;
3359;SDS011;1693;49.602;11.046;2023-08-01T14:02:21;1.50;;;1.00;;
3359;SDS011;1693;49.602;11.046;2023-08-01T14:04:50;2.10;;;1.27;;
3359;SDS011;1693;49.602;11.046;2023-08-01T14:07:17;2.90;;;1.43;;
3359;SDS011;1693;49.602;11.046;2023-08-01T14:09:46;1.20;;;0.90;;
3359;SDS011;1693;49.602;11.046;2023-08-01T14:12:13;1.63;;;1.00;;
3359;SDS011;1693;49.602;11.046;2023-08-01T14:14:45;2.40;;;1.17;;
3359;SDS011;1693;49.602;11.046;2023-08-01T14:17:14;1.97;;;1.30;;
3359;SDS011;1693;49.602;11.046;2023-08-01T14:19:41;2.40;;;1.47;;
3359;SDS011;1693;49.602;11.046;2023-08-01T14:22:08;1.27;;;1.00;;
3359;SDS011;1693;49.602;11.046;2023-08-01T14:24:35;1.80;;;1.23;;
3359;SDS011;1693;49.602;11.046;2023-08-01T14:27:04;1.70;;;1.00;;
3359;SDS011;1693;49.602;11.046;2023-08-01T14:29:31;1.97;;;1.40;;
3359;SDS011;1693;49.602;11.046;2023-08-01T14:31:59;3.30;;;1.20;;
3359;SDS011;1693;49.602;11.046;2023-08-01T14:34:26;1.80;;;1.00;;
3359;SDS011;1693;49.602;11.046;2023-08-01T14:36:54;2.40;;;1.00;;
3359;SDS011;1693;49.602;11.046;2023-08-01T14:39:20;1.77;;;1.10;;
3359;SDS011;1693;49.602;11.046;2023-08-01T14:41:48;1.60;;;0.93;;
3359;SDS011;1693;49.602;11.046;2023-08-01T14:44:19;1.23;;;0.87;;
3359;SDS011;1693;49.602;11.046;2023-08-01T14:46:49;1.30;;;1.00;;
3359;SDS011;1693;49.602;11.046;2023-08-01T14:49:19;1.50;;;1.00;;
3359;SDS011;1693;49.602;11.046;2023-08-01T14:51:47;1.70;;;1.10;;
3359;SDS011;1693;49.602;11.046;2023-08-01T14:54:15;2.50;;;0.97;;
3359;SDS011;1693;49.602;11.046;2023-08-01T14:56:42;5.30;;;1.57;;
3359;SDS011;1693;49.602;11.046;2023-08-01T14:59:09;2.80;;;0.90;;
3359;SDS011;1693;49.602;11.046;2023-08-01T15:01:37;7.30;;;1.23;;